createdAt,value
2022-12-23T00:01:01.153Z,99418.84
2022-12-23T00:03:30.348Z,99412.05
2022-12-23T00:05:58.967Z,99409.77
2022-12-23T00:08:28.459Z,99410.67
2022-12-23T00:10:57.413Z,99420.55
2022-12-23T00:13:44.139Z,99409.52
2022-12-23T00:16:14.699Z,99407.11
2022-12-23T00:18:44.302Z,99402.83
2022-12-23T00:21:15.043Z,99407.38
2022-12-23T00:23:45.459Z,99409.98
2022-12-23T00:26:19.169Z,99411.02
2022-12-23T00:28:46.940Z,99412.64
2022-12-23T00:31:18.031Z,99411.17
2022-12-23T00:33:48.499Z,99409.15
2022-12-23T00:36:20.453Z,99407.45
2022-12-23T00:39:07.247Z,99402.24
2022-12-23T00:41:54.688Z,99405.92
2022-12-23T00:44:23.037Z,99401.95
2022-12-23T00:46:50.949Z,99405.73
2022-12-23T00:49:38.788Z,99407.77
2022-12-23T00:52:08.403Z,99415.49
2022-12-23T00:54:37.552Z,99412.35
2022-12-23T00:57:06.588Z,99408.16
2022-12-23T00:59:34.902Z,99406.77
2022-12-23T01:02:22.508Z,99400.20
2022-12-23T01:05:08.882Z,99393.63
2022-12-23T01:07:38.553Z,99392.09
2022-12-23T01:10:11.557Z,99389.99
2022-12-23T01:12:41.883Z,99385.65
2022-12-23T01:15:10.954Z,99390.18
2022-12-23T01:17:40.205Z,99382.55
2022-12-23T01:20:12.065Z,99380.60
2022-12-23T01:22:40.279Z,99377.46
2022-12-23T01:25:10.239Z,99370.92
2022-12-23T01:27:42.614Z,99373.90
2022-12-23T01:30:11.922Z,99372.04
2022-12-23T01:32:40.246Z,99371.20
2022-12-23T01:35:09.474Z,99370.36
2022-12-23T01:37:38.029Z,99358.41
2022-12-23T01:40:08.277Z,99354.61
2022-12-23T01:42:44.645Z,99352.36
2022-12-23T01:45:18.800Z,99349.63
2022-12-23T01:47:57.392Z,99346.88
2022-12-23T01:50:31.884Z,99344.66
2022-12-23T01:53:08.200Z,99338.61
2022-12-23T01:55:59.370Z,99339.52
2022-12-23T01:58:32.887Z,99335.89
2022-12-23T02:01:19.730Z,99336.98
2022-12-23T02:03:50.539Z,99336.81
2022-12-23T02:06:40.188Z,99329.22
2022-12-23T02:09:16.833Z,99323.73
2022-12-23T02:12:01.665Z,99328.58
2022-12-23T02:15:00.988Z,99322.41
2022-12-23T02:17:34.072Z,99322.27
2022-12-23T02:20:38.713Z,99323.35
2022-12-23T02:23:41.257Z,99319.23
2022-12-23T02:26:31.105Z,99323.76
2022-12-23T02:29:20.381Z,99326.55
2022-12-23T02:31:57.947Z,99324.99
2022-12-23T02:34:33.403Z,99321.89
2022-12-23T02:37:08.960Z,99316.52
2022-12-23T02:39:46.061Z,99313.94
2022-12-23T02:42:15.453Z,99307.05
2022-12-23T02:44:48.262Z,99306.21
2022-12-23T02:47:22.850Z,99299.48
2022-12-23T02:49:54.899Z,99299.48
2022-12-23T02:52:26.439Z,99299.88
2022-12-23T02:55:00.336Z,99309.06
2022-12-23T02:57:34.693Z,99314.09
2022-12-23T03:00:05.207Z,99315.84
2022-12-23T03:02:34.399Z,99319.66
2022-12-23T03:05:02.248Z,99319.54
2022-12-23T03:07:33.915Z,99321.34
2022-12-23T03:10:09.442Z,99322.93
2022-12-23T03:12:48.646Z,99323.30
2022-12-23T03:15:33.043Z,99316.41
2022-12-23T03:18:08.234Z,99312.08
2022-12-23T03:20:43.932Z,99311.04
2022-12-23T03:23:21.477Z,99305.67
2022-12-23T03:25:57.685Z,99312.95
2022-12-23T03:28:31.310Z,99310.54
2022-12-23T03:31:02.865Z,99306.73
2022-12-23T03:33:34.644Z,99308.48
2022-12-23T03:36:07.182Z,99304.88
2022-12-23T03:38:38.188Z,99309.55
2022-12-23T03:41:11.299Z,99305.25
2022-12-23T03:43:50.187Z,99301.97
2022-12-23T03:46:26.488Z,99298.00
2022-12-23T03:48:59.979Z,99295.73
2022-12-23T03:51:32.715Z,99293.45
2022-12-23T03:54:07.413Z,99297.76
2022-12-23T03:56:40.957Z,99297.22
2022-12-23T03:59:15.081Z,99295.27
2022-12-23T04:01:49.520Z,99294.02
2022-12-23T04:04:25.127Z,99300.04
2022-12-23T04:06:58.200Z,99303.29
2022-12-23T04:09:28.787Z,99300.13
2022-12-23T04:11:58.351Z,99296.83
2022-12-23T04:14:26.422Z,99294.71
2022-12-23T04:16:58.644Z,99296.08
2022-12-23T04:19:26.577Z,99291.56
2022-12-23T04:21:56.286Z,99291.88
2022-12-23T04:24:24.098Z,99288.73
2022-12-23T04:26:52.489Z,99290.27
2022-12-23T04:29:20.173Z,99285.77
2022-12-23T04:31:48.888Z,99284.69
2022-12-23T04:34:16.818Z,99279.98
2022-12-23T04:36:44.636Z,99277.20
2022-12-23T04:39:12.582Z,99272.16
2022-12-23T04:41:40.428Z,99273.35
2022-12-23T04:44:09.576Z,99265.71
2022-12-23T04:46:37.949Z,99267.77
2022-12-23T04:49:06.518Z,99264.48
2022-12-23T04:51:34.628Z,99261.52
2022-12-23T04:54:02.641Z,99262.73
2022-12-23T04:56:30.439Z,99254.90
2022-12-23T04:59:01.272Z,99250.21
2022-12-23T05:01:29.535Z,99250.01
2022-12-23T05:03:57.902Z,99250.16
2022-12-23T05:06:26.426Z,99243.36
2022-12-23T05:08:54.876Z,99244.88
2022-12-23T05:11:22.846Z,99236.52
2022-12-23T05:13:51.107Z,99236.14
2022-12-23T05:16:21.241Z,99235.58
2022-12-23T05:18:49.646Z,99235.37
2022-12-23T05:21:18.291Z,99233.60
2022-12-23T05:23:46.457Z,99230.61
2022-12-23T05:26:14.199Z,99230.77
2022-12-23T05:28:44.999Z,99231.77
2022-12-23T05:31:13.789Z,99236.23
2022-12-23T05:33:42.961Z,99234.96
2022-12-23T05:36:15.189Z,99230.95
2022-12-23T05:38:43.311Z,99236.30
2022-12-23T05:41:11.132Z,99240.07
2022-12-23T05:43:41.926Z,99236.37
2022-12-23T05:46:10.125Z,99240.99
2022-12-23T05:48:38.676Z,99241.83
2022-12-23T05:51:06.789Z,99239.19
2022-12-23T05:53:35.016Z,99240.02
2022-12-23T05:56:08.470Z,99236.86
2022-12-23T05:58:38.504Z,99237.52
2022-12-23T06:01:07.818Z,99235.22
2022-12-23T06:03:36.318Z,99235.17
2022-12-23T06:06:06.765Z,99231.16
2022-12-23T06:08:35.606Z,99232.15
2022-12-23T06:11:13.463Z,99234.88
2022-12-23T06:13:41.415Z,99243.48
2022-12-23T06:16:09.930Z,99243.10
2022-12-23T06:18:38.046Z,99244.96
2022-12-23T06:21:06.794Z,99248.55
2022-12-23T06:23:36.292Z,99246.80
2022-12-23T06:26:05.424Z,99248.00
2022-12-23T06:28:33.628Z,99243.82
2022-12-23T06:31:01.820Z,99240.84
2022-12-23T06:33:30.598Z,99238.94
2022-12-23T06:35:59.982Z,99239.27
2022-12-23T06:38:28.088Z,99242.20
2022-12-23T06:40:56.468Z,99238.67
2022-12-23T06:43:44.078Z,99241.06
2022-12-23T06:46:14.776Z,99244.48
2022-12-23T06:48:42.791Z,99248.42
2022-12-23T06:51:14.644Z,99250.30
2022-12-23T06:53:42.895Z,99248.33
2022-12-23T06:56:11.748Z,99243.43
2022-12-23T06:59:01.493Z,99247.23
2022-12-23T07:01:30.731Z,99247.73
2022-12-23T07:04:22.053Z,99243.04
2022-12-23T07:06:50.554Z,99242.00
2022-12-23T07:09:19.909Z,99239.70
2022-12-23T07:11:48.619Z,99241.92
2022-12-23T07:14:17.032Z,99244.88
2022-12-23T07:16:46.182Z,99240.52
2022-12-23T07:19:15.236Z,99240.14
2022-12-23T07:21:44.488Z,99239.10
2022-12-23T07:24:33.986Z,99241.16
2022-12-23T07:27:21.803Z,99247.20
2022-12-23T07:29:54.855Z,99244.24
2022-12-23T07:32:24.184Z,99240.74
2022-12-23T07:34:55.094Z,99236.56
2022-12-23T07:37:23.021Z,99234.80
2022-12-23T07:39:50.579Z,99239.08
2022-12-23T07:42:44.177Z,99240.45
2022-12-23T07:45:06.244Z,99239.40
2022-12-23T07:47:33.816Z,99240.77
2022-12-23T07:50:01.372Z,99242.47
2022-12-23T07:52:29.369Z,99240.84
2022-12-23T07:54:56.933Z,99244.60
2022-12-23T07:57:24.562Z,99243.97
2022-12-23T07:59:52.118Z,99243.04
2022-12-23T08:02:23.005Z,99243.33
2022-12-23T08:04:50.735Z,99243.95
2022-12-23T08:07:18.302Z,99249.14
2022-12-23T08:09:45.803Z,99246.50
2022-12-23T08:12:13.420Z,99246.48
2022-12-23T08:14:41.089Z,99242.65
2022-12-23T08:17:08.984Z,99238.85
2022-12-23T08:19:36.945Z,99234.54
2022-12-23T08:22:04.486Z,99238.21
2022-12-23T08:24:32.036Z,99236.98
2022-12-23T08:26:59.565Z,99231.73
2022-12-23T08:29:31.273Z,99234.14
2022-12-23T08:32:03.551Z,99230.60
2022-12-23T08:34:31.403Z,99230.55
2022-12-23T08:36:58.956Z,99232.77
2022-12-23T08:39:26.514Z,99234.83
2022-12-23T08:41:56.424Z,99230.08
2022-12-23T08:44:26.385Z,99229.86
2022-12-23T08:46:54.047Z,99233.81
2022-12-23T08:49:21.631Z,99223.18
2022-12-23T08:51:49.343Z,99223.29
2022-12-23T08:54:19.066Z,99216.61
2022-12-23T08:56:46.686Z,99215.30
2022-12-23T08:59:19.058Z,99212.27
2022-12-23T09:01:48.201Z,99217.75
2022-12-23T09:04:16.253Z,99214.05
2022-12-23T09:06:44.815Z,99213.42
2022-12-23T09:09:14.973Z,99209.34
2022-12-23T09:11:42.872Z,99215.17
2022-12-23T09:14:11.592Z,99217.27
2022-12-23T09:16:39.355Z,99212.95
2022-12-23T09:19:07.316Z,99211.61
2022-12-23T09:21:35.117Z,99215.85
2022-12-23T09:24:02.894Z,99219.79
2022-12-23T09:26:31.703Z,99217.45
2022-12-23T09:28:59.476Z,99217.35
2022-12-23T09:31:34.044Z,99218.98
2022-12-23T09:34:03.427Z,99218.00
2022-12-23T09:36:31.096Z,99217.77
2022-12-23T09:38:59.199Z,99219.64
2022-12-23T09:41:47.809Z,99222.23
2022-12-23T09:44:43.680Z,99220.42
2022-12-23T09:47:15.476Z,99218.11
2022-12-23T09:49:49.220Z,99221.22
2022-12-23T09:52:24.741Z,99218.92
2022-12-23T09:54:54.532Z,99214.89
2022-12-23T09:57:31.173Z,99219.38
2022-12-23T10:00:08.393Z,99217.77
2022-12-23T10:03:00.077Z,99220.30
2022-12-23T10:05:39.180Z,99224.61
2022-12-23T10:08:14.813Z,99220.91
2022-12-23T10:10:45.387Z,99220.18
2022-12-23T10:13:26.270Z,99218.55
2022-12-23T10:15:57.853Z,99217.40
2022-12-23T10:18:35.659Z,99216.98
2022-12-23T10:21:08.777Z,99219.68
2022-12-23T10:23:39.610Z,99222.36
2022-12-23T10:26:15.263Z,99219.35
2022-12-23T10:28:43.773Z,99220.19
2022-12-23T10:34:18.114Z,99222.57
2022-12-23T10:36:55.415Z,99223.20
2022-12-23T10:39:31.576Z,99219.85
2022-12-23T10:42:12.905Z,99215.13
2022-12-23T10:44:58.607Z,99210.36
2022-12-23T10:47:39.575Z,99211.98
2022-12-23T10:50:26.719Z,99216.91
2022-12-23T10:52:57.661Z,99214.09
2022-12-23T10:55:33.751Z,99214.95
2022-12-23T10:58:08.248Z,99220.39
2022-12-23T11:00:40.058Z,99215.55
2022-12-23T11:03:17.335Z,99214.04
2022-12-23T11:05:51.176Z,99216.79
2022-12-23T11:08:22.399Z,99208.20
2022-12-23T11:10:50.250Z,99214.14
2022-12-23T11:13:34.248Z,99211.02
2022-12-23T11:16:17.626Z,99216.42
2022-12-23T11:18:57.845Z,99218.63
2022-12-23T11:21:27.023Z,99215.58
2022-12-23T11:24:13.450Z,99222.17
2022-12-23T11:26:41.660Z,99223.57
2022-12-23T11:29:15.877Z,99221.27
2022-12-23T11:31:44.780Z,99217.44
2022-12-23T11:34:18.276Z,99222.45
2022-12-23T11:36:56.617Z,99219.27
2022-12-23T11:39:30.307Z,99219.02
2022-12-23T11:42:05.807Z,99217.90
2022-12-23T11:44:39.023Z,99221.20
2022-12-23T11:47:28.452Z,99221.41
2022-12-23T11:49:57.833Z,99217.55
2022-12-23T11:52:28.224Z,99215.04
2022-12-23T11:54:57.750Z,99215.18
2022-12-23T11:57:32.994Z,99210.26
2022-12-23T12:00:04.225Z,99211.64
2022-12-23T12:02:54.291Z,99213.77
2022-12-23T12:05:29.559Z,99212.95
2022-12-23T12:08:00.913Z,99212.52
2022-12-23T12:10:31.526Z,99215.64
2022-12-23T12:13:05.560Z,99216.39
2022-12-23T12:15:41.462Z,99214.46
2022-12-23T12:18:13.374Z,99214.75
2022-12-23T12:20:44.515Z,99214.75
2022-12-23T12:23:18.467Z,99215.66
2022-12-23T12:25:50.648Z,99208.36
2022-12-23T12:28:22.319Z,99211.19
2022-12-23T12:30:55.563Z,99214.58
2022-12-23T12:33:31.121Z,99217.78
2022-12-23T12:36:12.284Z,99221.10
2022-12-23T12:38:40.434Z,99224.25
2022-12-23T12:41:16.620Z,99229.66
2022-12-23T12:43:51.369Z,99233.18
2022-12-23T12:46:28.858Z,99233.01
2022-12-23T12:49:04.649Z,99239.98
2022-12-23T12:51:42.759Z,99240.93
2022-12-23T12:54:22.461Z,99241.61
2022-12-23T12:56:53.867Z,99248.06
2022-12-23T12:59:25.799Z,99247.18
2022-12-23T13:02:14.892Z,99249.12
2022-12-23T13:05:09.421Z,99254.55
2022-12-23T13:07:46.511Z,99257.85
2022-12-23T13:10:16.015Z,99263.61
2022-12-23T13:13:04.350Z,99261.70
2022-12-23T13:15:38.023Z,99267.28
2022-12-23T13:18:19.982Z,99268.89
2022-12-23T13:20:58.728Z,99272.55
2022-12-23T13:23:45.199Z,99273.42
2022-12-23T13:26:26.887Z,99279.90
2022-12-23T13:29:03.568Z,99284.09
2022-12-23T13:31:43.020Z,99285.00
2022-12-23T13:34:23.168Z,99291.14
2022-12-23T13:37:01.082Z,99290.47
2022-12-23T13:39:45.209Z,99294.98
2022-12-23T13:42:25.293Z,99296.17
2022-12-23T13:44:55.423Z,99295.26
2022-12-23T13:47:28.472Z,99295.05
2022-12-23T13:50:04.915Z,99288.02
2022-12-23T13:52:48.802Z,99286.05
2022-12-23T13:55:32.021Z,99283.61
2022-12-23T13:58:10.654Z,99284.45
2022-12-23T14:00:41.154Z,99278.69
2022-12-23T14:03:23.931Z,99277.31
2022-12-23T14:05:53.178Z,99275.95
2022-12-23T14:08:25.575Z,99274.73
2022-12-23T14:10:56.884Z,99269.20
2022-12-23T14:13:27.403Z,99276.23
2022-12-23T14:16:24.837Z,99277.69
2022-12-23T14:19:33.804Z,99276.33
2022-12-23T14:22:13.349Z,99278.14
2022-12-23T14:25:17.656Z,99286.19
2022-12-23T14:27:55.669Z,99287.27
2022-12-23T14:30:33.435Z,99290.27
2022-12-23T14:33:06.378Z,99288.56
2022-12-23T14:36:12.836Z,99287.41
2022-12-23T14:38:42.119Z,99286.55
2022-12-23T14:41:38.677Z,99283.99
2022-12-23T14:44:20.071Z,99288.08
2022-12-23T14:46:56.875Z,99288.13
2022-12-23T14:49:40.369Z,99288.90
2022-12-23T14:52:57.460Z,99292.05
2022-12-23T14:55:45.051Z,99292.13
2022-12-23T14:58:53.235Z,99293.05
2022-12-23T15:01:28.381Z,99290.70
2022-12-23T15:04:01.529Z,99293.86
2022-12-23T15:06:35.941Z,99297.05
2022-12-23T15:09:04.975Z,99302.14
2022-12-23T15:11:35.599Z,99299.90
2022-12-23T15:14:11.028Z,99300.41
2022-12-23T15:16:44.226Z,99302.52
2022-12-23T15:19:20.797Z,99307.08
2022-12-23T15:21:58.197Z,99304.29
2022-12-23T15:24:28.582Z,99302.25
2022-12-23T15:27:25.076Z,99297.55
2022-12-23T15:29:48.312Z,99295.48
2022-12-23T15:32:16.634Z,99295.33
2022-12-23T15:34:47.445Z,99294.30
2022-12-23T15:37:19.171Z,99297.13
2022-12-23T15:39:52.713Z,99299.55
2022-12-23T15:42:30.527Z,99301.48
2022-12-23T15:44:59.101Z,99303.61
2022-12-23T15:47:34.889Z,99302.23
2022-12-23T15:50:03.761Z,99299.47
2022-12-23T15:52:32.342Z,99297.06
2022-12-23T15:55:10.437Z,99288.91
2022-12-23T15:57:48.187Z,99293.15
2022-12-23T16:00:24.411Z,99295.14
2022-12-23T16:03:03.922Z,99290.30
2022-12-23T16:05:34.971Z,99289.82
2022-12-23T16:08:26.765Z,99295.23
2022-12-23T16:11:03.492Z,99299.29
2022-12-23T16:13:33.342Z,99299.48
2022-12-23T16:16:30.359Z,99298.96
2022-12-23T16:18:58.062Z,99300.76
2022-12-23T16:21:29.866Z,99298.34
2022-12-23T16:23:58.797Z,99302.21
2022-12-23T16:26:30.018Z,99304.71
2022-12-23T16:29:06.823Z,99306.00
2022-12-23T16:32:01.748Z,99307.11
2022-12-23T16:34:31.626Z,99305.90
2022-12-23T16:37:04.536Z,99302.11
2022-12-23T16:40:03.537Z,99299.39
2022-12-23T16:42:42.425Z,99299.22
2022-12-23T16:45:33.725Z,99293.52
2022-12-23T16:48:30.717Z,99295.27
2022-12-23T16:51:22.364Z,99299.98
2022-12-23T16:54:10.394Z,99297.52
2022-12-23T16:56:50.350Z,99302.59
2022-12-23T16:59:46.992Z,99307.31
2022-12-23T17:02:39.737Z,99310.12
2022-12-23T17:05:40.999Z,99309.46
2022-12-23T17:08:35.956Z,99307.96
2022-12-23T17:11:36.264Z,99309.02
2022-12-23T17:14:27.187Z,99307.46
2022-12-23T17:17:25.011Z,99309.89
2022-12-23T17:20:23.015Z,99310.08
2022-12-23T17:23:25.808Z,99321.64
2022-12-23T17:26:15.913Z,99321.36
2022-12-23T17:28:48.398Z,99324.93
2022-12-23T17:31:44.457Z,99322.96
2022-12-23T17:34:39.005Z,99319.58
2022-12-23T17:37:16.331Z,99315.98
2022-12-23T17:39:51.587Z,99314.09
2022-12-23T17:42:31.947Z,99310.81
2022-12-23T17:45:29.375Z,99320.05
2022-12-23T17:48:22.313Z,99315.39
2022-12-23T17:50:54.349Z,99311.42
2022-12-23T17:53:26.412Z,99320.69
2022-12-23T17:55:56.145Z,99323.13
2022-12-23T17:58:24.258Z,99323.66
2022-12-23T18:00:57.721Z,99321.21
2022-12-23T18:03:26.441Z,99315.11
2022-12-23T18:06:01.598Z,99310.38
2022-12-23T18:08:30.795Z,99301.96
2022-12-23T18:10:59.121Z,99301.05
2022-12-23T18:13:27.236Z,99298.84
2022-12-23T18:15:57.137Z,99293.51
2022-12-23T18:18:40.402Z,99297.26
2022-12-23T18:21:17.201Z,99307.83
2022-12-23T18:23:46.280Z,99311.52
2022-12-23T18:26:15.669Z,99315.30
2022-12-23T18:28:44.208Z,99311.59
2022-12-23T18:31:17.230Z,99314.11
2022-12-23T18:33:46.450Z,99310.23
2022-12-23T18:36:23.245Z,99302.42
2022-12-23T18:38:54.653Z,99299.14
2022-12-23T18:41:24.793Z,99303.39
2022-12-23T18:43:53.595Z,99304.30
2022-12-23T18:46:21.986Z,99296.54
2022-12-23T18:48:51.320Z,99296.23
2022-12-23T18:51:21.624Z,99292.65
2022-12-23T18:53:52.069Z,99291.64
2022-12-23T18:56:20.750Z,99287.14
2022-12-23T18:58:48.899Z,99282.49
2022-12-23T19:01:18.455Z,99280.00
2022-12-23T19:03:48.959Z,99270.70
2022-12-23T19:06:20.224Z,99271.39
2022-12-23T19:08:47.989Z,99269.51
2022-12-23T19:11:18.856Z,99267.54
2022-12-23T19:13:49.525Z,99266.69
2022-12-23T19:16:19.786Z,99261.50
2022-12-23T19:18:51.298Z,99262.73
2022-12-23T19:21:19.391Z,99255.44
2022-12-23T19:23:47.576Z,99248.80
2022-12-23T19:26:17.322Z,99252.08
2022-12-23T19:28:48.161Z,99245.99
2022-12-23T19:31:17.567Z,99239.93
2022-12-23T19:33:47.592Z,99241.66
2022-12-23T19:36:18.649Z,99239.21
2022-12-23T19:38:47.841Z,99234.02
2022-12-23T19:41:17.365Z,99237.73
2022-12-23T19:43:46.457Z,99236.42
2022-12-23T19:46:16.895Z,99238.34
2022-12-23T19:48:53.661Z,99240.06
2022-12-23T19:51:22.668Z,99239.70
2022-12-23T19:53:52.333Z,99231.05
2022-12-23T19:56:22.156Z,99231.41
2022-12-23T19:58:50.913Z,99234.92
2022-12-23T20:01:25.799Z,99228.69
2022-12-23T20:04:18.366Z,99225.06
2022-12-23T20:06:50.895Z,99219.66
2022-12-23T20:09:39.191Z,99217.08
2022-12-23T20:12:29.091Z,99220.67
2022-12-23T20:14:58.598Z,99223.02
2022-12-23T20:17:29.992Z,99224.30
2022-12-23T20:20:19.007Z,99217.54
2022-12-23T20:23:01.937Z,99216.15
2022-12-23T20:25:29.809Z,99217.76
2022-12-23T20:27:57.881Z,99214.70
2022-12-23T20:30:27.494Z,99216.63
2022-12-23T20:32:56.662Z,99212.48
2022-12-23T20:35:25.126Z,99217.69
2022-12-23T20:37:52.940Z,99214.40
2022-12-23T20:40:21.872Z,99217.21
2022-12-23T20:42:51.504Z,99216.88
2022-12-23T20:45:23.212Z,99220.54
2022-12-23T20:48:03.289Z,99207.51
2022-12-23T20:50:51.855Z,99202.48
2022-12-23T20:53:40.243Z,99208.06
2022-12-23T20:56:30.981Z,99218.33
2022-12-23T20:59:19.831Z,99218.30
2022-12-23T21:02:09.846Z,99216.70
2022-12-23T21:04:58.250Z,99217.38
2022-12-23T21:07:28.197Z,99216.52
2022-12-23T21:10:18.241Z,99212.20
2022-12-23T21:12:57.265Z,99215.93
2022-12-23T21:15:47.950Z,99214.44
2022-12-23T21:18:40.118Z,99214.59
2022-12-23T21:21:15.903Z,99209.84
2022-12-23T21:24:05.309Z,99212.40
2022-12-23T21:26:36.329Z,99216.38
2022-12-23T21:29:24.753Z,99213.71
2022-12-23T21:31:53.898Z,99208.46
2022-12-23T21:34:23.830Z,99208.79
2022-12-23T21:37:14.179Z,99199.77
2022-12-23T21:40:04.153Z,99199.13
2022-12-23T21:42:56.727Z,99197.95
2022-12-23T21:45:46.177Z,99196.92
2022-12-23T21:48:36.842Z,99187.88
2022-12-23T21:51:10.085Z,99183.33
2022-12-23T21:53:47.119Z,99179.83
2022-12-23T21:56:35.980Z,99177.75
2022-12-23T21:59:28.307Z,99177.90
2022-12-23T22:02:22.544Z,99170.20
2022-12-23T22:05:16.612Z,99169.48
2022-12-23T22:07:49.947Z,99166.36
2022-12-23T22:10:42.489Z,99157.66
2022-12-23T22:13:12.574Z,99160.40
2022-12-23T22:16:04.491Z,99154.49
2022-12-23T22:18:56.438Z,99152.91
2022-12-23T22:21:49.854Z,99148.04
2022-12-23T22:24:39.493Z,99141.05
2022-12-23T22:27:19.645Z,99142.06
2022-12-23T22:30:10.031Z,99139.80
2022-12-23T22:33:00.996Z,99133.67
2022-12-23T22:36:00.548Z,99134.88
2022-12-23T22:38:56.113Z,99127.38
2022-12-23T22:41:46.604Z,99119.66
2022-12-23T22:44:38.544Z,99121.39
2022-12-23T22:47:07.698Z,99117.54
2022-12-23T22:49:56.165Z,99111.77
2022-12-23T22:52:45.908Z,99104.79
2022-12-23T22:55:35.264Z,99107.24
2022-12-23T22:58:28.542Z,99098.54
2022-12-23T23:01:23.298Z,99091.23
2022-12-23T23:04:18.633Z,99092.81
2022-12-23T23:07:10.432Z,99090.05
2022-12-23T23:10:02.247Z,99094.44
2022-12-23T23:12:52.650Z,99091.64
2022-12-23T23:15:46.890Z,99082.60
2022-12-23T23:18:41.946Z,99072.70
2022-12-23T23:21:32.566Z,99065.42
2022-12-23T23:24:27.715Z,99059.71
2022-12-23T23:27:01.271Z,99061.98
2022-12-23T23:29:52.911Z,99063.08
2022-12-23T23:32:42.449Z,99057.69
2022-12-23T23:35:31.633Z,99068.32
2022-12-23T23:38:21.515Z,99065.90
2022-12-23T23:41:10.064Z,99073.02
2022-12-23T23:44:12.910Z,99074.42
2022-12-23T23:47:02.941Z,99074.77
2022-12-23T23:49:55.923Z,99078.75
2022-12-23T23:52:46.284Z,99085.70
2022-12-23T23:55:39.661Z,99083.45
2022-12-23T23:58:32.827Z,99081.52
